createdAt,value
2018-08-07T00:00:05.248Z,53.7
2018-08-07T00:15:05.649Z,53.9
2018-08-07T00:30:04.497Z,54.1
2018-08-07T00:45:05.004Z,54.5
2018-08-07T01:00:04.981Z,54.6
2018-08-07T01:15:05.103Z,55
2018-08-07T01:30:04.922Z,55
2018-08-07T01:45:04.666Z,55.4
2018-08-07T02:00:05.730Z,55.6
2018-08-07T02:15:05.479Z,55.7
2018-08-07T02:30:05.231Z,56
2018-08-07T02:45:05.057Z,56.4
2018-08-07T03:00:04.863Z,56.5
2018-08-07T03:15:04.328Z,56.5
2018-08-07T03:30:04.733Z,56.7
2018-08-07T03:45:05.684Z,57.1
2018-08-07T04:00:04.914Z,57.4
2018-08-07T04:15:04.520Z,57.5
2018-08-07T04:30:04.444Z,57.7
2018-08-07T04:45:04.850Z,58.1
2018-08-07T05:00:05.032Z,58.3
2018-08-07T05:15:04.799Z,58.1
2018-08-07T05:30:04.527Z,58.7
2018-08-07T05:45:05.081Z,58.8
2018-08-07T06:00:04.403Z,59.3
2018-08-07T06:15:04.870Z,59.5
2018-08-07T06:30:05.117Z,59.6
2018-08-07T06:45:04.846Z,59.7
2018-08-07T07:00:04.724Z,60
2018-08-07T07:15:05.160Z,59.7
2018-08-07T07:30:05.178Z,59.6
2018-08-07T07:45:04.665Z,59.2
2018-08-07T08:00:04.633Z,59.1
2018-08-07T08:15:04.559Z,59.9
2018-08-07T08:30:04.989Z,57.3
2018-08-07T08:45:04.691Z,57.5
2018-08-07T09:00:04.664Z,55.4
2018-08-07T09:15:05.080Z,56.1
2018-08-07T09:30:04.739Z,52.6
2018-08-07T09:45:05.064Z,50.2
2018-08-07T10:00:05.016Z,50
2018-08-07T10:15:04.438Z,49.1
2018-08-07T10:30:04.570Z,49
2018-08-07T10:45:05.005Z,48.7
2018-08-07T11:00:04.701Z,48.8
2018-08-07T11:15:04.728Z,48.7
2018-08-07T11:30:05.339Z,48.9
2018-08-07T11:45:04.750Z,48.5
2018-08-07T12:00:04.594Z,48.6
2018-08-07T12:15:04.553Z,48.6
2018-08-07T12:30:04.707Z,48.6
2018-08-07T12:45:05.357Z,48.4
2018-08-07T13:00:04.885Z,47.7
2018-08-07T13:15:04.373Z,47.1
2018-08-07T13:30:04.991Z,46.9
2018-08-07T13:45:04.515Z,46.4
2018-08-07T14:00:04.504Z,46
2018-08-07T14:15:04.451Z,45.8
2018-08-07T14:30:04.700Z,45.4
2018-08-07T14:45:04.543Z,44.7
2018-08-07T15:00:04.552Z,44.2
2018-08-07T15:15:04.502Z,44
2018-08-07T15:30:05.051Z,44
2018-08-07T15:45:10.191Z,44
2018-08-07T16:00:05.180Z,44.2
2018-08-07T16:15:04.913Z,44.4
2018-08-07T16:30:05.565Z,45.6
2018-08-07T16:45:04.534Z,46.7
2018-08-07T17:00:05.242Z,47.3
2018-08-07T17:15:05.330Z,48.1
2018-08-07T17:30:04.915Z,48.2
2018-08-07T17:45:04.355Z,48.4
2018-08-07T18:00:05.190Z,48.5
2018-08-07T18:15:06.935Z,48.8
2018-08-07T18:30:08.973Z,49.2
2018-08-07T18:45:04.995Z,49.3
2018-08-07T19:00:04.619Z,49.2
2018-08-07T19:15:05.260Z,49.3
2018-08-07T19:30:04.652Z,49.4
2018-08-07T19:45:05.087Z,49.3
2018-08-07T20:00:05.403Z,49.4
2018-08-07T20:15:05.561Z,49.7
2018-08-07T20:30:05.360Z,50.1
2018-08-07T20:45:04.825Z,50.5
2018-08-07T21:00:04.924Z,50.8
2018-08-07T21:15:05.272Z,50.7
2018-08-07T21:30:04.785Z,51.1
2018-08-07T21:45:05.505Z,51.4
2018-08-07T22:00:04.991Z,52
2018-08-07T22:15:05.057Z,52.1
2018-08-07T22:30:04.845Z,51.8
2018-08-07T22:45:04.569Z,52.1
2018-08-07T23:00:05.510Z,52.3
2018-08-07T23:15:05.039Z,52.5
2018-08-07T23:30:04.875Z,53
2018-08-07T23:45:04.632Z,53.3
